createdAt,value
2018-06-19T00:01:34.016Z,27.30
2018-06-19T00:04:01.988Z,29.70
2018-06-19T00:06:29.955Z,32.47
2018-06-19T00:08:58.008Z,37.20
2018-06-19T00:11:26.061Z,32.67
2018-06-19T00:13:54.008Z,31.47
2018-06-19T00:16:21.790Z,39.00
2018-06-19T00:18:52.163Z,33.70
2018-06-19T00:21:25.175Z,35.53
2018-06-19T00:23:53.135Z,31.50
2018-06-19T00:26:21.084Z,31.60
2018-06-19T00:28:48.869Z,33.37
2018-06-19T00:31:16.816Z,32.37
2018-06-19T00:33:44.833Z,33.73
2018-06-19T00:36:12.776Z,30.50
2018-06-19T00:38:40.824Z,31.30
2018-06-19T00:41:08.788Z,30.57
2018-06-19T00:43:36.768Z,30.40
2018-06-19T00:46:05.884Z,27.90
2018-06-19T00:48:33.857Z,29.40
2018-06-19T00:51:01.832Z,31.47
2018-06-19T00:53:29.793Z,32.10
2018-06-19T00:56:09.376Z,41.43
2018-06-19T00:58:37.349Z,32.40
2018-06-19T01:01:05.291Z,31.10
2018-06-19T01:03:33.323Z,33.23
2018-06-19T01:06:01.323Z,30.93
2018-06-19T01:08:29.380Z,32.70
2018-06-19T01:10:57.350Z,36.23
2018-06-19T01:13:25.330Z,30.13
2018-06-19T01:15:53.671Z,35.23
2018-06-19T01:18:21.680Z,31.40
2018-06-19T01:20:49.900Z,38.30
2018-06-19T01:23:18.704Z,34.43
2018-06-19T01:25:46.674Z,32.47
2018-06-19T01:28:14.641Z,31.10
2018-06-19T01:30:42.505Z,34.20
2018-06-19T01:33:10.409Z,32.63
2018-06-19T01:35:38.409Z,35.47
2018-06-19T01:38:06.412Z,32.53
2018-06-19T01:40:34.280Z,27.97
2018-06-19T01:43:02.277Z,30.03
2018-06-19T01:45:30.239Z,36.17
2018-06-19T01:47:58.212Z,30.83
2018-06-19T01:50:26.156Z,32.87
2018-06-19T01:52:54.106Z,32.90
2018-06-19T01:55:22.044Z,34.70
2018-06-19T01:57:49.968Z,38.00
2018-06-19T02:00:18.036Z,40.53
2018-06-19T02:02:46.011Z,39.23
2018-06-19T02:05:14.245Z,32.70
2018-06-19T02:07:42.284Z,30.90
2018-06-19T02:10:10.221Z,31.83
2018-06-19T02:12:38.186Z,34.03
2018-06-19T02:15:06.208Z,44.73
2018-06-19T02:17:34.148Z,29.17
2018-06-19T02:20:02.097Z,30.90
2018-06-19T02:22:30.156Z,34.03
2018-06-19T02:24:58.140Z,28.07
2018-06-19T02:27:26.144Z,26.80
2018-06-19T02:29:54.110Z,25.10
2018-06-19T02:32:22.062Z,28.83
2018-06-19T02:34:50.323Z,24.23
2018-06-19T02:39:52.851Z,27.60
2018-06-19T02:42:20.804Z,24.27
2018-06-19T02:44:48.765Z,27.57
2018-06-19T02:47:16.715Z,22.97
2018-06-19T02:49:44.702Z,25.73
2018-06-19T02:52:12.674Z,30.27
2018-06-19T02:54:40.444Z,27.40
2018-06-19T02:57:08.429Z,27.07
2018-06-19T02:59:36.379Z,28.50
2018-06-19T03:02:04.328Z,27.33
2018-06-19T03:04:32.297Z,27.27
2018-06-19T03:07:00.306Z,33.70
2018-06-19T03:09:28.264Z,27.17
2018-06-19T03:11:56.252Z,34.13
2018-06-19T03:14:24.913Z,32.83
2018-06-19T03:16:52.932Z,29.53
2018-06-19T03:19:21.252Z,32.98
2018-06-19T03:21:49.281Z,29.63
2018-06-19T03:24:17.276Z,31.70
2018-06-19T03:26:45.264Z,34.27
2018-06-19T03:29:13.328Z,42.43
2018-06-19T03:31:41.334Z,27.50
2018-06-19T03:34:09.272Z,29.60
2018-06-19T03:36:37.243Z,27.80
2018-06-19T03:39:08.071Z,32.27
2018-06-19T03:41:36.076Z,31.20
2018-06-19T03:44:04.196Z,25.77
2018-06-19T03:46:32.183Z,28.90
2018-06-19T03:49:00.158Z,28.33
2018-06-19T03:51:28.231Z,27.90
2018-06-19T03:53:56.221Z,26.43
2018-06-19T03:56:24.167Z,28.40
2018-06-19T03:58:52.363Z,28.03
2018-06-19T04:01:20.376Z,25.07
2018-06-19T04:03:48.301Z,28.80
2018-06-19T04:06:16.271Z,30.33
2018-06-19T04:08:44.241Z,31.37
2018-06-19T04:11:12.392Z,29.33
2018-06-19T04:13:40.484Z,25.80
2018-06-19T04:16:08.661Z,25.97
2018-06-19T04:18:36.625Z,41.33
2018-06-19T04:21:04.622Z,39.93
2018-06-19T04:23:32.640Z,28.20
2018-06-19T04:26:00.612Z,26.43
2018-06-19T04:28:28.585Z,27.30
2018-06-19T04:30:56.601Z,27.80
2018-06-19T04:33:24.612Z,24.73
2018-06-19T04:35:52.592Z,24.20
2018-06-19T04:38:20.599Z,28.63
2018-06-19T04:40:48.775Z,28.37
2018-06-19T04:43:16.749Z,23.10
2018-06-19T04:45:44.792Z,24.20
2018-06-19T04:48:12.752Z,21.40
2018-06-19T04:50:40.708Z,24.33
2018-06-19T04:53:08.708Z,24.43
2018-06-19T04:55:36.692Z,21.87
2018-06-19T04:58:04.684Z,27.20
2018-06-19T05:00:32.645Z,23.37
2018-06-19T05:03:00.712Z,27.60
2018-06-19T05:05:28.707Z,28.17
2018-06-19T05:07:56.738Z,25.50
2018-06-19T05:10:24.780Z,22.63
2018-06-19T05:12:53.433Z,25.20
2018-06-19T05:15:21.322Z,21.90
2018-06-19T05:17:49.316Z,31.97
2018-06-19T05:20:17.283Z,20.37
2018-06-19T05:22:45.243Z,30.00
2018-06-19T05:25:13.200Z,24.40
2018-06-19T05:27:41.268Z,25.47
2018-06-19T05:30:09.244Z,26.20
2018-06-19T05:32:37.416Z,24.73
2018-06-19T05:35:05.432Z,23.00
2018-06-19T05:37:33.373Z,22.17
2018-06-19T05:40:01.380Z,18.37
2018-06-19T05:42:29.341Z,19.83
2018-06-19T05:44:57.431Z,19.07
2018-06-19T05:47:25.393Z,16.20
2018-06-19T05:49:54.391Z,17.55
2018-06-19T05:52:22.336Z,16.23
2018-06-19T05:54:50.304Z,17.17
2018-06-19T05:57:18.256Z,15.03
2018-06-19T05:59:46.201Z,22.77
2018-06-19T06:02:14.011Z,15.53
2018-06-19T06:04:42.000Z,13.80
2018-06-19T06:07:10.059Z,20.20
2018-06-19T06:09:38.077Z,15.03
2018-06-19T06:12:06.047Z,14.63
2018-06-19T06:14:34.119Z,19.07
2018-06-19T06:17:02.110Z,14.43
2018-06-19T06:19:30.032Z,17.90
2018-06-19T06:21:58.041Z,11.30
2018-06-19T06:24:25.822Z,13.83
2018-06-19T06:26:54.584Z,12.97
2018-06-19T06:29:22.749Z,16.53
2018-06-19T06:31:50.688Z,9.37
2018-06-19T06:34:18.662Z,15.43
2018-06-19T06:36:46.635Z,12.90
2018-06-19T06:39:14.621Z,11.67
2018-06-19T06:41:42.592Z,10.50
2018-06-19T06:44:10.381Z,12.03
2018-06-19T06:46:38.329Z,9.00
2018-06-19T06:49:06.299Z,16.60
2018-06-19T06:51:34.268Z,10.30
2018-06-19T06:54:02.344Z,17.00
2018-06-19T06:56:30.400Z,12.30
2018-06-19T06:58:58.366Z,11.00
2018-06-19T07:01:26.338Z,13.60
2018-06-19T07:03:54.312Z,18.80
2018-06-19T07:06:22.303Z,16.40
2018-06-19T07:08:50.320Z,13.20
2018-06-19T07:11:18.315Z,11.13
2018-06-19T07:13:46.489Z,14.40
2018-06-19T07:16:14.476Z,13.33
2018-06-19T07:18:42.654Z,14.67
2018-06-19T07:21:10.575Z,17.23
2018-06-19T07:23:38.587Z,15.00
2018-06-19T07:26:06.591Z,17.93
2018-06-19T07:28:34.590Z,16.03
2018-06-19T07:31:02.588Z,11.03
2018-06-19T07:33:30.604Z,13.05
2018-06-19T07:35:58.611Z,19.60
2018-06-19T07:38:26.704Z,11.47
2018-06-19T07:40:54.561Z,18.87
2018-06-19T07:43:22.351Z,17.17
2018-06-19T07:45:50.292Z,20.93
2018-06-19T07:48:18.259Z,14.60
2018-06-19T07:50:46.202Z,13.17
2018-06-19T07:53:14.193Z,11.97
2018-06-19T07:55:42.333Z,14.93
2018-06-19T07:58:10.092Z,19.27
2018-06-19T08:00:38.050Z,12.73
2018-06-19T08:03:06.354Z,19.13
2018-06-19T08:05:34.402Z,11.83
2018-06-19T08:08:02.445Z,16.40
2018-06-19T08:10:30.420Z,17.07
2018-06-19T08:12:58.391Z,17.30
2018-06-19T08:15:26.962Z,21.17
2018-06-19T08:17:54.945Z,16.43
2018-06-19T08:20:22.904Z,17.33
2018-06-19T08:22:50.908Z,15.50
2018-06-19T08:25:18.850Z,20.57
2018-06-19T08:27:46.849Z,19.63
2018-06-19T08:30:14.940Z,15.83
2018-06-19T08:32:42.705Z,17.90
2018-06-19T08:35:10.684Z,24.47
2018-06-19T08:37:38.658Z,18.17
2018-06-19T08:40:06.679Z,15.53
2018-06-19T08:42:34.648Z,18.90
2018-06-19T08:45:02.632Z,15.07
2018-06-19T08:47:37.190Z,26.53
2018-06-19T08:50:05.364Z,14.47
2018-06-19T08:52:33.344Z,22.17
2018-06-19T08:55:01.404Z,15.80
2018-06-19T08:57:29.397Z,20.63
2018-06-19T08:59:57.592Z,17.27
2018-06-19T09:02:25.588Z,19.40
2018-06-19T09:04:53.604Z,24.83
2018-06-19T09:07:22.649Z,16.43
2018-06-19T09:09:50.658Z,16.10
2018-06-19T09:12:18.715Z,19.00
2018-06-19T09:14:46.703Z,18.63
2018-06-19T09:17:15.460Z,22.33
2018-06-19T09:19:43.378Z,21.10
2018-06-19T09:22:11.396Z,18.80
2018-06-19T09:24:39.307Z,14.45
2018-06-19T09:27:07.297Z,21.77
2018-06-19T09:29:35.303Z,14.60
2018-06-19T09:32:03.232Z,18.20
2018-06-19T09:34:31.282Z,18.37
2018-06-19T09:36:59.244Z,18.47
2018-06-19T09:39:28.159Z,19.20
2018-06-19T09:41:56.120Z,20.17
2018-06-19T09:44:24.078Z,17.57
2018-06-19T09:46:52.037Z,24.13
2018-06-19T09:49:20.014Z,31.17
2018-06-19T09:51:47.967Z,27.70
2018-06-19T09:54:15.931Z,28.77
2018-06-19T09:56:43.905Z,24.67
2018-06-19T09:59:12.014Z,20.90
2018-06-19T10:01:39.860Z,24.13
2018-06-19T10:04:07.625Z,28.40
2018-06-19T10:06:35.629Z,24.73
2018-06-19T10:09:05.236Z,22.03
2018-06-19T10:11:33.250Z,23.53
2018-06-19T10:14:01.454Z,31.27
2018-06-19T10:16:29.426Z,23.40
2018-06-19T10:18:57.440Z,25.80
2018-06-19T10:21:25.416Z,36.37
2018-06-19T10:23:53.363Z,36.63
2018-06-19T10:26:21.437Z,33.33
2018-06-19T10:28:49.416Z,30.73
2018-06-19T10:31:17.409Z,29.57
2018-06-19T10:33:45.379Z,36.33
2018-06-19T10:36:13.336Z,36.60
2018-06-19T10:38:41.317Z,31.43
2018-06-19T10:41:09.321Z,34.07
2018-06-19T10:43:37.255Z,35.90
2018-06-19T10:46:05.224Z,35.43
2018-06-19T10:48:33.348Z,30.50
2018-06-19T10:51:01.446Z,32.40
2018-06-19T10:53:29.443Z,29.90
2018-06-19T10:55:57.447Z,36.40
2018-06-19T10:58:25.397Z,31.17
2018-06-19T11:00:53.350Z,30.50
2018-06-19T11:03:21.317Z,30.93
2018-06-19T11:05:49.284Z,32.97
2018-06-19T11:08:17.363Z,31.97
2018-06-19T11:10:45.287Z,25.37
2018-06-19T11:13:13.270Z,29.17
2018-06-19T11:15:41.265Z,27.00
2018-06-19T11:18:09.203Z,27.37
2018-06-19T11:20:37.167Z,30.90
2018-06-19T11:23:05.201Z,26.73
2018-06-19T11:25:33.561Z,25.50
2018-06-19T11:28:01.524Z,27.20
2018-06-19T11:30:29.587Z,21.07
2018-06-19T11:32:57.658Z,18.63
2018-06-19T11:35:25.636Z,19.70
2018-06-19T11:37:53.645Z,19.83
2018-06-19T11:40:21.582Z,18.87
2018-06-19T11:42:49.559Z,16.60
2018-06-19T11:45:17.516Z,18.83
2018-06-19T11:47:46.132Z,21.00
2018-06-19T11:50:14.224Z,17.10
2018-06-19T11:52:42.207Z,19.40
2018-06-19T11:55:10.298Z,21.27
2018-06-19T11:57:38.279Z,15.57
2018-06-19T12:00:06.622Z,17.70
2018-06-19T12:02:34.646Z,19.53
2018-06-19T12:05:02.648Z,21.80
2018-06-19T12:07:36.084Z,21.90
2018-06-19T12:10:04.116Z,22.37
2018-06-19T12:12:32.208Z,22.23
2018-06-19T12:14:59.988Z,21.10
2018-06-19T12:17:27.977Z,27.67
2018-06-19T12:19:55.956Z,23.80
2018-06-19T12:22:23.983Z,25.37
2018-06-19T12:24:52.024Z,23.43
2018-06-19T12:27:20.017Z,23.83
2018-06-19T12:29:48.074Z,25.73
2018-06-19T12:32:15.877Z,27.30
2018-06-19T12:34:43.856Z,23.97
2018-06-19T12:37:11.912Z,21.13
2018-06-19T12:39:39.999Z,32.07
2018-06-19T12:42:07.936Z,26.10
2018-06-19T12:44:35.920Z,29.83
2018-06-19T12:47:03.897Z,42.30
2018-06-19T12:49:43.352Z,29.57
2018-06-19T12:52:22.784Z,27.93
2018-06-19T12:55:31.212Z,29.50
2018-06-19T12:57:59.212Z,31.63
2018-06-19T13:00:27.185Z,28.93
2018-06-19T13:03:06.793Z,26.40
2018-06-19T13:05:46.256Z,28.77
2018-06-19T13:08:14.308Z,28.90
2018-06-19T13:10:42.281Z,23.73
2018-06-19T13:13:24.777Z,25.97
2018-06-19T13:15:53.545Z,29.17
2018-06-19T13:18:34.323Z,28.33
2018-06-19T13:21:02.289Z,22.03
2018-06-19T13:23:31.497Z,25.40
2018-06-19T13:25:59.909Z,22.40
2018-06-19T13:29:39.480Z,22.80
2018-06-19T13:32:07.452Z,21.83
2018-06-19T13:34:36.258Z,20.77
2018-06-19T13:37:04.751Z,20.70
2018-06-19T13:39:33.018Z,22.03
2018-06-19T13:42:13.612Z,21.87
2018-06-19T13:44:51.711Z,30.40
2018-06-19T13:47:20.214Z,25.97
2018-06-19T13:49:48.216Z,23.50
2018-06-19T13:52:16.379Z,26.70
2018-06-19T13:54:44.565Z,21.20
2018-06-19T13:57:31.198Z,26.00
2018-06-19T14:00:00.341Z,24.80
2018-06-19T14:02:28.374Z,26.30
2018-06-19T14:04:56.797Z,30.23
2018-06-19T14:07:25.699Z,25.87
2018-06-19T14:10:05.167Z,27.67
2018-06-19T14:13:13.073Z,28.37
2018-06-19T14:15:44.243Z,24.60
2018-06-19T14:18:12.952Z,31.00
2018-06-19T14:20:41.509Z,27.90
2018-06-19T14:23:09.513Z,23.53
2018-06-19T14:25:37.497Z,24.43
2018-06-19T14:28:05.539Z,25.03
2018-06-19T14:30:33.520Z,34.03
2018-06-19T14:33:01.883Z,28.80
2018-06-19T14:35:29.833Z,25.83
2018-06-19T14:37:57.834Z,34.17
2018-06-19T14:40:25.875Z,28.07
2018-06-19T14:42:53.840Z,27.10
2018-06-19T14:45:21.806Z,27.37
2018-06-19T14:47:49.804Z,30.13
2018-06-19T14:50:17.778Z,32.90
2018-06-19T14:52:45.697Z,31.43
2018-06-19T14:55:13.656Z,26.17
2018-06-19T14:57:41.719Z,23.53
2018-06-19T15:00:10.152Z,25.37
2018-06-19T15:02:38.201Z,27.80
2018-06-19T15:05:06.548Z,21.40
2018-06-19T15:07:39.912Z,31.20
2018-06-19T15:10:08.450Z,23.17
2018-06-19T15:12:36.551Z,20.73
2018-06-19T15:15:04.568Z,20.40
2018-06-19T15:17:32.569Z,24.57
2018-06-19T15:20:00.624Z,18.50
2018-06-19T15:22:28.760Z,27.30
2018-06-19T15:24:56.839Z,20.93
2018-06-19T15:27:24.760Z,16.77
2018-06-19T15:29:52.732Z,18.80
2018-06-19T15:32:20.935Z,17.40
2018-06-19T15:34:48.917Z,20.73
2018-06-19T15:37:16.993Z,20.20
2018-06-19T15:39:45.101Z,19.67
2018-06-19T15:42:13.070Z,20.95
2018-06-19T15:44:41.008Z,19.00
2018-06-19T15:47:08.996Z,20.70
2018-06-19T15:49:36.923Z,20.00
2018-06-19T15:52:04.990Z,18.60
2018-06-19T15:54:33.003Z,20.05
2018-06-19T15:57:00.956Z,24.57
2018-06-19T15:59:28.977Z,21.23
2018-06-19T16:01:57.046Z,19.57
2018-06-19T16:04:25.017Z,27.67
2018-06-19T16:06:53.078Z,21.43
2018-06-19T16:09:21.024Z,23.33
2018-06-19T16:11:48.968Z,19.73
2018-06-19T16:14:16.928Z,24.63
2018-06-19T16:16:44.940Z,22.70
2018-06-19T16:19:12.881Z,21.47
2018-06-19T16:21:40.840Z,26.40
2018-06-19T16:24:08.821Z,26.40
2018-06-19T16:26:36.810Z,25.47
2018-06-19T16:29:04.819Z,22.53
2018-06-19T16:31:33.605Z,24.27
2018-06-19T16:34:01.597Z,22.83
2018-06-19T16:36:29.551Z,20.83
2018-06-19T16:38:57.667Z,23.60
2018-06-19T16:41:25.641Z,25.87
2018-06-19T16:43:53.611Z,23.90
2018-06-19T16:46:21.580Z,22.83
2018-06-19T16:48:49.566Z,21.70
2018-06-19T16:51:17.550Z,23.70
2018-06-19T16:53:45.597Z,29.30
2018-06-19T16:56:13.562Z,23.53
2018-06-19T16:58:41.535Z,24.13
2018-06-19T17:01:09.517Z,25.17
2018-06-19T17:03:37.484Z,32.87
2018-06-19T17:06:05.480Z,24.67
2018-06-19T17:08:34.137Z,25.77
2018-06-19T17:11:02.133Z,24.05
2018-06-19T17:13:30.058Z,27.83
2018-06-19T17:15:58.079Z,29.40
2018-06-19T17:18:26.101Z,35.80
2018-06-19T17:20:54.172Z,29.93
2018-06-19T17:23:22.112Z,29.70
2018-06-19T17:25:50.119Z,33.23
2018-06-19T17:28:18.074Z,28.90
2018-06-19T17:30:46.089Z,30.43
2018-06-19T17:33:14.085Z,26.67
2018-06-19T17:35:42.050Z,32.67
2018-06-19T17:38:10.046Z,33.37
2018-06-19T17:40:38.104Z,29.77
2018-06-19T17:43:05.987Z,33.63
2018-06-19T17:45:34.598Z,29.90
2018-06-19T17:48:02.551Z,29.07
2018-06-19T17:50:30.496Z,27.50
2018-06-19T17:52:58.544Z,29.80
2018-06-19T17:55:26.660Z,33.30
2018-06-19T17:57:54.621Z,33.80
2018-06-19T18:00:23.109Z,32.90
2018-06-19T18:02:51.103Z,34.40
2018-06-19T18:05:19.060Z,32.13
2018-06-19T18:07:47.032Z,32.07
2018-06-19T18:10:15.025Z,39.80
2018-06-19T18:12:43.028Z,34.33
2018-06-19T18:15:10.992Z,33.23
2018-06-19T18:17:39.000Z,32.27
2018-06-19T18:20:07.032Z,36.97
2018-06-19T18:22:35.036Z,32.00
2018-06-19T18:25:03.031Z,39.77
2018-06-19T18:27:30.969Z,35.90
2018-06-19T18:29:58.941Z,46.87
2018-06-19T18:32:26.914Z,41.60
2018-06-19T18:34:54.847Z,39.93
2018-06-19T18:37:22.803Z,36.00
2018-06-19T18:39:51.164Z,36.60
2018-06-19T18:42:19.189Z,36.67
2018-06-19T18:44:47.155Z,35.40
2018-06-19T18:47:15.159Z,39.83
2018-06-19T18:49:43.102Z,40.43
2018-06-19T18:52:11.044Z,37.27
2018-06-19T18:54:39.032Z,36.83
2018-06-19T18:57:07.220Z,38.00
2018-06-19T18:59:35.568Z,30.43
2018-06-19T19:02:03.533Z,39.53
2018-06-19T19:04:31.323Z,33.97
2018-06-19T19:06:59.304Z,32.70
2018-06-19T19:09:27.274Z,34.03
2018-06-19T19:11:55.654Z,33.30
2018-06-19T19:14:23.680Z,36.93
2018-06-19T19:16:57.017Z,29.10
2018-06-19T19:19:25.400Z,33.17
2018-06-19T19:21:53.965Z,32.00
2018-06-19T19:24:22.051Z,31.50
2018-06-19T19:26:55.356Z,37.03
2018-06-19T19:29:28.949Z,32.13
2018-06-19T19:31:56.895Z,36.37
2018-06-19T19:34:24.832Z,35.17
2018-06-19T19:36:58.364Z,36.80
2018-06-19T19:39:29.005Z,34.90
2018-06-19T19:41:56.975Z,32.90
2018-06-19T19:44:24.951Z,37.13
2018-06-19T19:46:58.564Z,38.60
2018-06-19T19:49:26.352Z,31.97
2018-06-19T19:51:54.349Z,30.63
2018-06-19T19:54:22.301Z,32.23
2018-06-19T19:56:55.853Z,31.33
2018-06-19T19:59:23.904Z,34.20
2018-06-19T20:01:51.993Z,30.67
2018-06-19T20:04:19.928Z,29.40
2018-06-19T20:06:47.940Z,34.00
2018-06-19T20:09:15.885Z,27.63
2018-06-19T20:11:43.908Z,26.07
2018-06-19T20:14:11.820Z,24.93
2018-06-19T20:16:39.890Z,26.07
2018-06-19T20:19:07.928Z,28.83
2018-06-19T20:21:36.807Z,26.83
2018-06-19T20:24:04.846Z,25.73
2018-06-19T20:26:32.786Z,28.33
2018-06-19T20:29:00.761Z,33.37
2018-06-19T20:31:28.752Z,28.50
2018-06-19T20:33:56.773Z,31.00
2018-06-19T20:36:24.772Z,33.13
2018-06-19T20:38:52.711Z,30.17
2018-06-19T20:41:20.706Z,29.20
2018-06-19T20:43:48.657Z,29.63
2018-06-19T20:46:16.585Z,32.77
2018-06-19T20:48:44.568Z,28.93
2018-06-19T20:51:12.514Z,29.80
2018-06-19T20:53:40.488Z,38.77
2018-06-19T20:56:08.428Z,32.93
2018-06-19T20:58:37.309Z,32.00
2018-06-19T21:01:05.279Z,34.70
2018-06-19T21:03:33.223Z,39.10
2018-06-19T21:06:01.239Z,32.60
2018-06-19T21:08:34.824Z,34.40
2018-06-19T21:11:02.948Z,32.87
2018-06-19T21:13:30.892Z,35.07
2018-06-19T21:15:58.919Z,32.57
2018-06-19T21:18:26.880Z,35.70
2018-06-19T21:20:55.689Z,30.00
2018-06-19T21:23:23.773Z,35.77
2018-06-19T21:25:51.710Z,32.50
2018-06-19T21:28:19.700Z,31.27
2018-06-19T21:30:47.653Z,32.60
2018-06-19T21:33:15.684Z,37.53
2018-06-19T21:35:43.917Z,35.63
2018-06-19T21:38:11.853Z,32.57
2018-06-19T21:40:39.824Z,30.27
2018-06-19T21:43:08.021Z,32.60
2018-06-19T21:45:35.991Z,34.13
2018-06-19T21:48:03.985Z,29.43
2018-06-19T21:50:31.934Z,37.13
2018-06-19T21:52:59.959Z,30.73
2018-06-19T21:55:27.983Z,29.77
2018-06-19T21:57:55.942Z,31.20
2018-06-19T22:00:23.901Z,30.87
2018-06-19T22:02:51.872Z,32.40
2018-06-19T22:05:19.835Z,27.40
2018-06-19T22:07:47.598Z,29.27
2018-06-19T22:10:15.605Z,32.60
2018-06-19T22:12:43.574Z,26.00
2018-06-19T22:15:11.508Z,29.33
2018-06-19T22:17:39.450Z,26.93
2018-06-19T22:20:07.375Z,26.67
2018-06-19T22:22:35.316Z,23.27
2018-06-19T22:25:03.363Z,27.77
2018-06-19T22:27:31.319Z,28.40
2018-06-19T22:29:59.271Z,25.00
2018-06-19T22:32:27.205Z,28.23
2018-06-19T22:34:55.160Z,23.87
2018-06-19T22:37:23.130Z,23.97
2018-06-19T22:39:51.094Z,26.17
2018-06-19T22:42:19.141Z,24.10
2018-06-19T22:44:47.137Z,22.00
2018-06-19T22:47:15.103Z,24.23
2018-06-19T22:49:43.057Z,21.27
2018-06-19T22:52:11.011Z,19.67
2018-06-19T22:54:39.112Z,22.20
2018-06-19T22:57:07.064Z,23.40
2018-06-19T22:59:35.020Z,32.63
2018-06-19T23:02:03.032Z,28.77
2018-06-19T23:04:30.988Z,21.93
2018-06-19T23:06:58.961Z,17.70
2018-06-19T23:09:26.959Z,17.50
2018-06-19T23:11:54.921Z,23.00
2018-06-19T23:14:23.032Z,21.40
2018-06-19T23:16:50.983Z,21.53
2018-06-19T23:19:18.921Z,21.47
2018-06-19T23:21:46.949Z,23.90
2018-06-19T23:24:14.925Z,21.85
2018-06-19T23:26:42.914Z,18.33
2018-06-19T23:29:10.911Z,19.67
2018-06-19T23:31:39.672Z,17.60
2018-06-19T23:34:07.482Z,16.57
2018-06-19T23:36:35.537Z,31.80
2018-06-19T23:39:04.088Z,19.60
2018-06-19T23:41:32.040Z,18.43
2018-06-19T23:44:00.133Z,22.13
2018-06-19T23:46:28.189Z,18.23
2018-06-19T23:48:56.195Z,19.30
2018-06-19T23:51:24.274Z,19.67
2018-06-19T23:53:52.336Z,21.40
2018-06-19T23:56:20.295Z,18.57
2018-06-19T23:58:48.312Z,20.90
